sensor_id;sensor_type;location;lat;lon;timestamp;temperature;humidity
34877;DHT22;21086;44.780;17.194;2024-01-16T00:01:56;3.20;99.90
34877;DHT22;21086;44.780;17.194;2024-01-16T00:04:23;3.20;99.90
34877;DHT22;21086;44.780;17.194;2024-01-16T00:06:50;3.30;99.90
34877;DHT22;21086;44.780;17.194;2024-01-16T00:09:17;3.30;99.90
34877;DHT22;21086;44.780;17.194;2024-01-16T00:11:44;3.40;99.90
34877;DHT22;21086;44.780;17.194;2024-01-16T00:14:11;3.40;99.90
34877;DHT22;21086;44.780;17.194;2024-01-16T00:16:43;3.50;99.90
34877;DHT22;21086;44.780;17.194;2024-01-16T00:19:11;3.50;99.90
34877;DHT22;21086;44.780;17.194;2024-01-16T00:21:42;3.50;99.90
34877;DHT22;21086;44.780;17.194;2024-01-16T00:24:13;3.50;99.90
34877;DHT22;21086;44.780;17.194;2024-01-16T00:26:40;3.50;99.90
34877;DHT22;21086;44.780;17.194;2024-01-16T00:29:08;3.40;99.90
34877;DHT22;21086;44.780;17.194;2024-01-16T00:31:39;3.40;99.90
34877;DHT22;21086;44.780;17.194;2024-01-16T00:34:06;3.40;99.90
34877;DHT22;21086;44.780;17.194;2024-01-16T00:36:34;3.40;99.90
34877;DHT22;21086;44.780;17.194;2024-01-16T00:39:01;3.40;99.90
34877;DHT22;21086;44.780;17.194;2024-01-16T00:41:29;3.30;99.90
34877;DHT22;21086;44.780;17.194;2024-01-16T00:43:57;3.30;99.90
34877;DHT22;21086;44.780;17.194;2024-01-16T00:46:24;3.30;99.90
34877;DHT22;21086;44.780;17.194;2024-01-16T00:48:52;3.30;99.90
34877;DHT22;21086;44.780;17.194;2024-01-16T00:51:19;3.30;99.90
34877;DHT22;21086;44.780;17.194;2024-01-16T00:53:46;3.30;99.90
34877;DHT22;21086;44.780;17.194;2024-01-16T00:56:13;3.40;99.90
34877;DHT22;21086;44.780;17.194;2024-01-16T00:58:41;3.40;99.90
34877;DHT22;21086;44.780;17.194;2024-01-16T01:01:08;3.50;99.90
34877;DHT22;21086;44.780;17.194;2024-01-16T01:03:35;3.50;99.90
34877;DHT22;21086;44.780;17.194;2024-01-16T01:06:02;3.60;99.90
34877;DHT22;21086;44.780;17.194;2024-01-16T01:08:29;3.50;99.90
34877;DHT22;21086;44.780;17.194;2024-01-16T01:10:56;3.50;99.90
34877;DHT22;21086;44.780;17.194;2024-01-16T01:13:23;3.50;99.90
34877;DHT22;21086;44.780;17.194;2024-01-16T01:15:52;3.60;99.90
34877;DHT22;21086;44.780;17.194;2024-01-16T01:18:19;3.60;99.90
34877;DHT22;21086;44.780;17.194;2024-01-16T01:20:46;3.60;99.90
34877;DHT22;21086;44.780;17.194;2024-01-16T01:23:13;3.50;99.90
34877;DHT22;21086;44.780;17.194;2024-01-16T01:25:40;3.50;99.90
34877;DHT22;21086;44.780;17.194;2024-01-16T01:28:07;3.50;99.90
34877;DHT22;21086;44.780;17.194;2024-01-16T01:30:34;3.40;99.90
34877;DHT22;21086;44.780;17.194;2024-01-16T01:33:01;3.40;99.90
34877;DHT22;21086;44.780;17.194;2024-01-16T01:35:29;3.50;99.90
34877;DHT22;21086;44.780;17.194;2024-01-16T01:37:56;3.40;99.90
34877;DHT22;21086;44.780;17.194;2024-01-16T01:40:23;3.40;99.90
34877;DHT22;21086;44.780;17.194;2024-01-16T01:42:50;3.50;99.90
34877;DHT22;21086;44.780;17.194;2024-01-16T01:45:17;3.50;99.90
34877;DHT22;21086;44.780;17.194;2024-01-16T01:47:44;3.60;99.90
34877;DHT22;21086;44.780;17.194;2024-01-16T01:50:13;3.60;99.90
34877;DHT22;21086;44.780;17.194;2024-01-16T01:52:40;3.60;99.90
34877;DHT22;21086;44.780;17.194;2024-01-16T01:55:10;3.70;99.90
34877;DHT22;21086;44.780;17.194;2024-01-16T01:57:38;3.70;99.90
34877;DHT22;21086;44.780;17.194;2024-01-16T02:00:06;3.70;99.90
34877;DHT22;21086;44.780;17.194;2024-01-16T02:02:33;3.70;99.90
34877;DHT22;21086;44.780;17.194;2024-01-16T02:05:01;3.70;99.90
34877;DHT22;21086;44.780;17.194;2024-01-16T02:07:29;3.70;99.90
34877;DHT22;21086;44.780;17.194;2024-01-16T02:09:58;3.70;99.90
34877;DHT22;21086;44.780;17.194;2024-01-16T02:12:27;3.70;99.90
34877;DHT22;21086;44.780;17.194;2024-01-16T02:14:54;3.70;99.90
34877;DHT22;21086;44.780;17.194;2024-01-16T02:17:22;3.70;99.90
34877;DHT22;21086;44.780;17.194;2024-01-16T02:19:49;3.70;99.90
34877;DHT22;21086;44.780;17.194;2024-01-16T02:22:20;3.70;99.90
34877;DHT22;21086;44.780;17.194;2024-01-16T02:24:48;3.70;99.90
34877;DHT22;21086;44.780;17.194;2024-01-16T02:27:16;3.70;99.90
34877;DHT22;21086;44.780;17.194;2024-01-16T02:29:43;3.70;99.90
34877;DHT22;21086;44.780;17.194;2024-01-16T02:32:13;3.70;99.90
34877;DHT22;21086;44.780;17.194;2024-01-16T02:34:41;3.70;99.90
34877;DHT22;21086;44.780;17.194;2024-01-16T02:37:08;3.60;99.90
34877;DHT22;21086;44.780;17.194;2024-01-16T02:39:35;3.50;99.90
34877;DHT22;21086;44.780;17.194;2024-01-16T02:42:02;3.50;99.90
34877;DHT22;21086;44.780;17.194;2024-01-16T02:44:30;3.40;99.90
34877;DHT22;21086;44.780;17.194;2024-01-16T02:46:57;3.40;99.90
34877;DHT22;21086;44.780;17.194;2024-01-16T02:49:24;3.10;99.90
34877;DHT22;21086;44.780;17.194;2024-01-16T02:51:53;3.20;99.90
34877;DHT22;21086;44.780;17.194;2024-01-16T02:54:22;3.30;99.90
34877;DHT22;21086;44.780;17.194;2024-01-16T02:56:49;3.30;99.90
34877;DHT22;21086;44.780;17.194;2024-01-16T02:59:17;3.30;99.90
34877;DHT22;21086;44.780;17.194;2024-01-16T03:01:44;3.40;99.90
34877;DHT22;21086;44.780;17.194;2024-01-16T03:04:11;3.40;99.90
34877;DHT22;21086;44.780;17.194;2024-01-16T03:06:38;3.40;99.90
34877;DHT22;21086;44.780;17.194;2024-01-16T03:09:06;3.40;99.90
34877;DHT22;21086;44.780;17.194;2024-01-16T03:11:33;3.20;99.90
34877;DHT22;21086;44.780;17.194;2024-01-16T03:14:00;2.90;99.90
34877;DHT22;21086;44.780;17.194;2024-01-16T03:16:28;3.00;99.90
34877;DHT22;21086;44.780;17.194;2024-01-16T03:18:55;3.00;99.90
34877;DHT22;21086;44.780;17.194;2024-01-16T03:21:22;3.00;99.90
34877;DHT22;21086;44.780;17.194;2024-01-16T03:23:49;3.00;99.90
34877;DHT22;21086;44.780;17.194;2024-01-16T03:26:17;3.10;99.90
34877;DHT22;21086;44.780;17.194;2024-01-16T03:28:44;3.20;99.90
34877;DHT22;21086;44.780;17.194;2024-01-16T03:31:13;3.20;99.90
34877;DHT22;21086;44.780;17.194;2024-01-16T03:33:41;3.20;99.90
34877;DHT22;21086;44.780;17.194;2024-01-16T03:36:10;3.30;99.90
34877;DHT22;21086;44.780;17.194;2024-01-16T03:38:38;3.40;99.90
34877;DHT22;21086;44.780;17.194;2024-01-16T03:41:05;3.40;99.90
34877;DHT22;21086;44.780;17.194;2024-01-16T03:43:34;3.40;99.90
34877;DHT22;21086;44.780;17.194;2024-01-16T03:46:01;3.40;99.90
34877;DHT22;21086;44.780;17.194;2024-01-16T03:48:28;3.50;99.90
34877;DHT22;21086;44.780;17.194;2024-01-16T03:50:56;3.50;99.90
34877;DHT22;21086;44.780;17.194;2024-01-16T03:53:23;3.60;99.90
34877;DHT22;21086;44.780;17.194;2024-01-16T03:55:51;3.70;99.90
34877;DHT22;21086;44.780;17.194;2024-01-16T03:58:18;3.70;99.90
34877;DHT22;21086;44.780;17.194;2024-01-16T04:00:45;3.70;99.90
34877;DHT22;21086;44.780;17.194;2024-01-16T04:03:12;3.70;99.90
34877;DHT22;21086;44.780;17.194;2024-01-16T04:05:40;3.70;99.90
34877;DHT22;21086;44.780;17.194;2024-01-16T04:08:07;3.70;99.90
34877;DHT22;21086;44.780;17.194;2024-01-16T04:10:34;3.70;99.90
34877;DHT22;21086;44.780;17.194;2024-01-16T04:13:02;3.60;99.90
34877;DHT22;21086;44.780;17.194;2024-01-16T04:15:29;3.60;99.90
34877;DHT22;21086;44.780;17.194;2024-01-16T04:17:56;3.60;99.90
34877;DHT22;21086;44.780;17.194;2024-01-16T04:20:24;3.50;99.90
34877;DHT22;21086;44.780;17.194;2024-01-16T04:22:51;3.50;99.90
34877;DHT22;21086;44.780;17.194;2024-01-16T04:25:18;3.50;99.90
34877;DHT22;21086;44.780;17.194;2024-01-16T04:27:45;3.40;99.90
34877;DHT22;21086;44.780;17.194;2024-01-16T04:30:13;3.40;99.90
34877;DHT22;21086;44.780;17.194;2024-01-16T04:32:40;3.40;99.90
34877;DHT22;21086;44.780;17.194;2024-01-16T04:35:08;3.40;99.90
34877;DHT22;21086;44.780;17.194;2024-01-16T04:37:35;3.40;99.90
34877;DHT22;21086;44.780;17.194;2024-01-16T04:40:04;3.40;99.90
34877;DHT22;21086;44.780;17.194;2024-01-16T04:42:32;3.30;99.90
34877;DHT22;21086;44.780;17.194;2024-01-16T04:44:59;3.30;99.90
34877;DHT22;21086;44.780;17.194;2024-01-16T04:47:26;3.30;99.90
34877;DHT22;21086;44.780;17.194;2024-01-16T04:49:54;3.20;99.90
34877;DHT22;21086;44.780;17.194;2024-01-16T04:52:21;3.30;99.90
34877;DHT22;21086;44.780;17.194;2024-01-16T04:54:48;3.30;99.90
34877;DHT22;21086;44.780;17.194;2024-01-16T04:57:15;3.20;99.90
34877;DHT22;21086;44.780;17.194;2024-01-16T04:59:42;3.20;99.90
34877;DHT22;21086;44.780;17.194;2024-01-16T05:02:09;3.20;99.90
34877;DHT22;21086;44.780;17.194;2024-01-16T05:04:37;3.20;99.90
34877;DHT22;21086;44.780;17.194;2024-01-16T05:07:05;3.20;99.90
34877;DHT22;21086;44.780;17.194;2024-01-16T05:09:32;3.10;99.90
34877;DHT22;21086;44.780;17.194;2024-01-16T05:11:59;3.10;99.90
34877;DHT22;21086;44.780;17.194;2024-01-16T05:14:27;3.10;99.90
34877;DHT22;21086;44.780;17.194;2024-01-16T05:16:54;3.00;99.90
34877;DHT22;21086;44.780;17.194;2024-01-16T05:19:21;3.00;99.90
34877;DHT22;21086;44.780;17.194;2024-01-16T05:21:48;3.00;99.90
34877;DHT22;21086;44.780;17.194;2024-01-16T05:24:15;3.10;99.90
34877;DHT22;21086;44.780;17.194;2024-01-16T05:26:42;3.00;99.90
34877;DHT22;21086;44.780;17.194;2024-01-16T05:29:09;3.00;99.90
34877;DHT22;21086;44.780;17.194;2024-01-16T05:31:42;2.90;99.90
34877;DHT22;21086;44.780;17.194;2024-01-16T05:34:10;2.80;99.90
34877;DHT22;21086;44.780;17.194;2024-01-16T05:36:38;2.90;99.90
34877;DHT22;21086;44.780;17.194;2024-01-16T05:39:05;2.80;99.90
34877;DHT22;21086;44.780;17.194;2024-01-16T05:41:33;2.80;99.90
34877;DHT22;21086;44.780;17.194;2024-01-16T05:44:00;2.80;99.90
34877;DHT22;21086;44.780;17.194;2024-01-16T05:46:33;2.70;99.90
34877;DHT22;21086;44.780;17.194;2024-01-16T05:49:00;2.70;99.90
34877;DHT22;21086;44.780;17.194;2024-01-16T05:51:28;2.70;99.90
34877;DHT22;21086;44.780;17.194;2024-01-16T05:53:56;2.60;99.90
34877;DHT22;21086;44.780;17.194;2024-01-16T05:56:23;2.70;99.90
34877;DHT22;21086;44.780;17.194;2024-01-16T05:58:50;2.60;99.90
34877;DHT22;21086;44.780;17.194;2024-01-16T06:01:19;2.60;99.90
34877;DHT22;21086;44.780;17.194;2024-01-16T06:03:46;2.50;99.90
34877;DHT22;21086;44.780;17.194;2024-01-16T06:06:16;2.50;99.90
34877;DHT22;21086;44.780;17.194;2024-01-16T06:08:43;2.50;99.90
34877;DHT22;21086;44.780;17.194;2024-01-16T06:11:11;2.40;99.90
34877;DHT22;21086;44.780;17.194;2024-01-16T06:13:40;2.40;99.90
34877;DHT22;21086;44.780;17.194;2024-01-16T06:16:07;2.30;99.90
34877;DHT22;21086;44.780;17.194;2024-01-16T06:18:37;2.30;99.90
34877;DHT22;21086;44.780;17.194;2024-01-16T06:21:04;2.30;99.90
34877;DHT22;21086;44.780;17.194;2024-01-16T06:23:31;2.30;99.90
34877;DHT22;21086;44.780;17.194;2024-01-16T06:26:00;2.30;99.90
34877;DHT22;21086;44.780;17.194;2024-01-16T06:28:27;2.40;99.90
34877;DHT22;21086;44.780;17.194;2024-01-16T06:30:54;2.60;99.90
34877;DHT22;21086;44.780;17.194;2024-01-16T06:33:21;2.60;99.90
34877;DHT22;21086;44.780;17.194;2024-01-16T06:35:48;2.60;99.90
34877;DHT22;21086;44.780;17.194;2024-01-16T06:38:20;2.60;99.90
34877;DHT22;21086;44.780;17.194;2024-01-16T06:40:47;2.70;99.90
34877;DHT22;21086;44.780;17.194;2024-01-16T06:43:15;2.90;99.90
34877;DHT22;21086;44.780;17.194;2024-01-16T06:45:43;2.80;99.90
34877;DHT22;21086;44.780;17.194;2024-01-16T06:48:10;2.90;99.90
34877;DHT22;21086;44.780;17.194;2024-01-16T06:50:37;2.90;99.90
34877;DHT22;21086;44.780;17.194;2024-01-16T06:53:05;3.00;99.90
34877;DHT22;21086;44.780;17.194;2024-01-16T06:55:31;3.00;99.90
34877;DHT22;21086;44.780;17.194;2024-01-16T06:57:58;3.10;99.90
34877;DHT22;21086;44.780;17.194;2024-01-16T07:00:25;3.10;99.90
34877;DHT22;21086;44.780;17.194;2024-01-16T07:02:54;3.20;99.90
34877;DHT22;21086;44.780;17.194;2024-01-16T07:05:21;3.30;99.90
34877;DHT22;21086;44.780;17.194;2024-01-16T07:07:49;3.40;99.90
34877;DHT22;21086;44.780;17.194;2024-01-16T07:10:16;3.40;99.90
34877;DHT22;21086;44.780;17.194;2024-01-16T07:12:49;3.50;99.90
34877;DHT22;21086;44.780;17.194;2024-01-16T07:15:16;3.50;99.90
34877;DHT22;21086;44.780;17.194;2024-01-16T07:17:43;3.60;99.90
34877;DHT22;21086;44.780;17.194;2024-01-16T07:20:11;3.60;99.90
34877;DHT22;21086;44.780;17.194;2024-01-16T07:22:38;3.70;99.90
34877;DHT22;21086;44.780;17.194;2024-01-16T07:25:07;3.70;99.90
34877;DHT22;21086;44.780;17.194;2024-01-16T07:27:34;3.70;99.90
34877;DHT22;21086;44.780;17.194;2024-01-16T07:30:04;3.70;99.90
34877;DHT22;21086;44.780;17.194;2024-01-16T07:32:32;3.70;99.90
34877;DHT22;21086;44.780;17.194;2024-01-16T07:34:59;3.80;99.90
34877;DHT22;21086;44.780;17.194;2024-01-16T07:37:26;3.90;99.90
34877;DHT22;21086;44.780;17.194;2024-01-16T07:39:53;3.90;99.90
34877;DHT22;21086;44.780;17.194;2024-01-16T07:42:20;3.80;99.90
34877;DHT22;21086;44.780;17.194;2024-01-16T07:44:47;3.90;99.90
34877;DHT22;21086;44.780;17.194;2024-01-16T07:47:14;3.80;99.90
34877;DHT22;21086;44.780;17.194;2024-01-16T07:49:41;3.80;99.90
34877;DHT22;21086;44.780;17.194;2024-01-16T07:52:09;3.70;99.90
34877;DHT22;21086;44.780;17.194;2024-01-16T07:54:36;3.70;99.90
34877;DHT22;21086;44.780;17.194;2024-01-16T07:57:03;3.70;99.90
34877;DHT22;21086;44.780;17.194;2024-01-16T07:59:30;3.70;99.90
34877;DHT22;21086;44.780;17.194;2024-01-16T08:01:57;3.80;99.90
34877;DHT22;21086;44.780;17.194;2024-01-16T08:04:24;3.90;99.90
34877;DHT22;21086;44.780;17.194;2024-01-16T08:06:52;4.10;99.90
34877;DHT22;21086;44.780;17.194;2024-01-16T08:09:19;4.20;99.90
34877;DHT22;21086;44.780;17.194;2024-01-16T08:11:47;4.40;99.90
34877;DHT22;21086;44.780;17.194;2024-01-16T08:14:14;4.50;99.90
34877;DHT22;21086;44.780;17.194;2024-01-16T08:16:41;4.60;99.90
34877;DHT22;21086;44.780;17.194;2024-01-16T08:19:08;4.70;99.90
34877;DHT22;21086;44.780;17.194;2024-01-16T08:21:35;4.80;99.90
34877;DHT22;21086;44.780;17.194;2024-01-16T08:24:03;4.90;99.90
34877;DHT22;21086;44.780;17.194;2024-01-16T08:26:30;5.00;99.90
34877;DHT22;21086;44.780;17.194;2024-01-16T08:28:57;5.20;99.90
34877;DHT22;21086;44.780;17.194;2024-01-16T08:31:25;5.30;99.90
34877;DHT22;21086;44.780;17.194;2024-01-16T08:33:52;5.40;99.90
34877;DHT22;21086;44.780;17.194;2024-01-16T08:36:22;5.60;99.90
34877;DHT22;21086;44.780;17.194;2024-01-16T08:38:49;5.70;99.90
34877;DHT22;21086;44.780;17.194;2024-01-16T08:41:17;5.80;99.90
34877;DHT22;21086;44.780;17.194;2024-01-16T08:43:44;5.80;99.90
34877;DHT22;21086;44.780;17.194;2024-01-16T08:46:11;6.00;99.90
34877;DHT22;21086;44.780;17.194;2024-01-16T08:48:38;6.10;99.90
34877;DHT22;21086;44.780;17.194;2024-01-16T08:51:10;6.20;99.90
34877;DHT22;21086;44.780;17.194;2024-01-16T08:53:38;6.30;99.90
34877;DHT22;21086;44.780;17.194;2024-01-16T08:56:05;6.30;99.90
34877;DHT22;21086;44.780;17.194;2024-01-16T08:58:36;6.30;99.90
34877;DHT22;21086;44.780;17.194;2024-01-16T09:01:05;6.40;99.90
34877;DHT22;21086;44.780;17.194;2024-01-16T09:03:33;6.50;99.90
34877;DHT22;21086;44.780;17.194;2024-01-16T09:06:00;6.50;99.90
34877;DHT22;21086;44.780;17.194;2024-01-16T09:08:28;6.40;99.90
34877;DHT22;21086;44.780;17.194;2024-01-16T09:10:56;6.40;99.90
34877;DHT22;21086;44.780;17.194;2024-01-16T09:13:23;6.50;99.90
34877;DHT22;21086;44.780;17.194;2024-01-16T09:15:50;6.40;99.90
34877;DHT22;21086;44.780;17.194;2024-01-16T09:18:17;6.60;99.90
34877;DHT22;21086;44.780;17.194;2024-01-16T09:20:45;6.70;99.90
34877;DHT22;21086;44.780;17.194;2024-01-16T09:23:13;6.90;99.90
34877;DHT22;21086;44.780;17.194;2024-01-16T09:25:40;6.90;99.90
34877;DHT22;21086;44.780;17.194;2024-01-16T09:28:11;6.80;99.90
34877;DHT22;21086;44.780;17.194;2024-01-16T09:30:38;6.80;99.90
34877;DHT22;21086;44.780;17.194;2024-01-16T09:33:05;6.60;99.90
34877;DHT22;21086;44.780;17.194;2024-01-16T09:35:34;6.80;99.90
34877;DHT22;21086;44.780;17.194;2024-01-16T09:38:01;7.00;99.90
34877;DHT22;21086;44.780;17.194;2024-01-16T09:40:28;7.40;99.90
34877;DHT22;21086;44.780;17.194;2024-01-16T09:42:56;7.50;99.90
34877;DHT22;21086;44.780;17.194;2024-01-16T09:45:24;7.70;99.90
34877;DHT22;21086;44.780;17.194;2024-01-16T09:47:52;7.90;99.90
34877;DHT22;21086;44.780;17.194;2024-01-16T09:50:20;8.00;99.90
34877;DHT22;21086;44.780;17.194;2024-01-16T09:52:48;8.10;99.90
34877;DHT22;21086;44.780;17.194;2024-01-16T09:55:16;8.10;99.90
34877;DHT22;21086;44.780;17.194;2024-01-16T09:57:45;8.20;99.90
34877;DHT22;21086;44.780;17.194;2024-01-16T10:00:13;8.30;99.90
34877;DHT22;21086;44.780;17.194;2024-01-16T10:02:41;8.50;99.90
34877;DHT22;21086;44.780;17.194;2024-01-16T10:05:12;8.50;99.90
34877;DHT22;21086;44.780;17.194;2024-01-16T10:07:41;8.60;99.90
34877;DHT22;21086;44.780;17.194;2024-01-16T10:10:12;8.40;99.90
34877;DHT22;21086;44.780;17.194;2024-01-16T10:12:40;8.40;99.90
34877;DHT22;21086;44.780;17.194;2024-01-16T10:15:07;8.50;99.90
34877;DHT22;21086;44.780;17.194;2024-01-16T10:17:42;8.70;99.90
34877;DHT22;21086;44.780;17.194;2024-01-16T10:20:10;8.80;99.90
34877;DHT22;21086;44.780;17.194;2024-01-16T10:22:41;8.80;99.90
34877;DHT22;21086;44.780;17.194;2024-01-16T10:25:11;9.00;99.90
34877;DHT22;21086;44.780;17.194;2024-01-16T10:27:43;9.20;99.90
34877;DHT22;21086;44.780;17.194;2024-01-16T10:30:10;9.40;99.90
34877;DHT22;21086;44.780;17.194;2024-01-16T10:32:40;9.30;99.90
34877;DHT22;21086;44.780;17.194;2024-01-16T10:35:09;9.20;99.90
34877;DHT22;21086;44.780;17.194;2024-01-16T10:40:29;9.50;99.90
34877;DHT22;21086;44.780;17.194;2024-01-16T10:43:01;10.00;99.90
34877;DHT22;21086;44.780;17.194;2024-01-16T10:45:33;10.50;99.90
34877;DHT22;21086;44.780;17.194;2024-01-16T10:48:05;11.00;99.90
34877;DHT22;21086;44.780;17.194;2024-01-16T10:50:38;11.30;99.90
34877;DHT22;21086;44.780;17.194;2024-01-16T10:53:07;11.70;99.90
34877;DHT22;21086;44.780;17.194;2024-01-16T10:58:09;12.10;99.90
34877;DHT22;21086;44.780;17.194;2024-01-16T11:00:42;12.40;99.90
34877;DHT22;21086;44.780;17.194;2024-01-16T11:03:16;12.80;99.90
34877;DHT22;21086;44.780;17.194;2024-01-16T11:05:46;13.00;99.90
34877;DHT22;21086;44.780;17.194;2024-01-16T11:08:15;13.50;99.90
34877;DHT22;21086;44.780;17.194;2024-01-16T11:10:44;13.90;99.90
34877;DHT22;21086;44.780;17.194;2024-01-16T11:13:12;14.40;99.90
34877;DHT22;21086;44.780;17.194;2024-01-16T11:15:40;15.10;99.90
34877;DHT22;21086;44.780;17.194;2024-01-16T11:18:09;15.80;99.90
34877;DHT22;21086;44.780;17.194;2024-01-16T11:20:36;16.60;99.90
34877;DHT22;21086;44.780;17.194;2024-01-16T11:23:24;17.10;99.90
34877;DHT22;21086;44.780;17.194;2024-01-16T11:25:51;17.60;99.90
34877;DHT22;21086;44.780;17.194;2024-01-16T11:28:18;18.30;99.90
34877;DHT22;21086;44.780;17.194;2024-01-16T11:30:46;18.60;99.90
34877;DHT22;21086;44.780;17.194;2024-01-16T11:36:00;19.00;99.90
34877;DHT22;21086;44.780;17.194;2024-01-16T11:38:29;19.20;99.90
34877;DHT22;21086;44.780;17.194;2024-01-16T11:40:59;19.40;99.90
34877;DHT22;21086;44.780;17.194;2024-01-16T11:46:04;20.10;99.90
34877;DHT22;21086;44.780;17.194;2024-01-16T11:48:31;20.10;99.90
34877;DHT22;21086;44.780;17.194;2024-01-16T11:50:59;20.40;99.90
34877;DHT22;21086;44.780;17.194;2024-01-16T11:53:33;20.40;99.90
34877;DHT22;21086;44.780;17.194;2024-01-16T12:02:09;21.10;99.90
34877;DHT22;21086;44.780;17.194;2024-01-16T12:04:37;21.80;99.90
34877;DHT22;21086;44.780;17.194;2024-01-16T12:07:04;22.00;99.90
34877;DHT22;21086;44.780;17.194;2024-01-16T12:09:31;22.20;99.90
34877;DHT22;21086;44.780;17.194;2024-01-16T12:12:02;22.50;99.90
34877;DHT22;21086;44.780;17.194;2024-01-16T12:14:30;22.90;99.90
34877;DHT22;21086;44.780;17.194;2024-01-16T12:17:13;22.90;99.90
34877;DHT22;21086;44.780;17.194;2024-01-16T12:19:41;22.80;99.90
34877;DHT22;21086;44.780;17.194;2024-01-16T12:22:13;22.90;99.90
34877;DHT22;21086;44.780;17.194;2024-01-16T12:24:41;23.30;99.90
34877;DHT22;21086;44.780;17.194;2024-01-16T12:27:09;23.40;99.90
34877;DHT22;21086;44.780;17.194;2024-01-16T12:29:36;23.20;99.90
34877;DHT22;21086;44.780;17.194;2024-01-16T12:32:13;23.60;99.90
34877;DHT22;21086;44.780;17.194;2024-01-16T12:34:47;23.40;99.90
34877;DHT22;21086;44.780;17.194;2024-01-16T12:37:15;23.70;99.90
34877;DHT22;21086;44.780;17.194;2024-01-16T12:39:43;23.80;99.90
34877;DHT22;21086;44.780;17.194;2024-01-16T12:42:11;23.90;99.90
34877;DHT22;21086;44.780;17.194;2024-01-16T12:44:39;23.20;99.90
34877;DHT22;21086;44.780;17.194;2024-01-16T12:47:06;23.70;99.90
34877;DHT22;21086;44.780;17.194;2024-01-16T12:49:40;23.80;99.90
34877;DHT22;21086;44.780;17.194;2024-01-16T12:52:22;24.00;99.90
34877;DHT22;21086;44.780;17.194;2024-01-16T12:54:59;24.30;99.90
34877;DHT22;21086;44.780;17.194;2024-01-16T12:57:31;24.80;99.90
34877;DHT22;21086;44.780;17.194;2024-01-16T12:59:58;24.70;99.90
34877;DHT22;21086;44.780;17.194;2024-01-16T13:02:28;24.80;99.90
34877;DHT22;21086;44.780;17.194;2024-01-16T13:04:59;25.10;99.90
34877;DHT22;21086;44.780;17.194;2024-01-16T13:07:27;25.60;99.90
34877;DHT22;21086;44.780;17.194;2024-01-16T13:10:20;26.10;99.90
34877;DHT22;21086;44.780;17.194;2024-01-16T13:12:50;26.40;99.90
34877;DHT22;21086;44.780;17.194;2024-01-16T13:15:17;26.50;99.90
34877;DHT22;21086;44.780;17.194;2024-01-16T13:17:44;26.30;99.90
34877;DHT22;21086;44.780;17.194;2024-01-16T13:20:11;26.40;99.90
34877;DHT22;21086;44.780;17.194;2024-01-16T13:22:41;26.60;99.90
34877;DHT22;21086;44.780;17.194;2024-01-16T13:25:14;27.00;99.90
34877;DHT22;21086;44.780;17.194;2024-01-16T13:27:41;26.90;99.90
34877;DHT22;21086;44.780;17.194;2024-01-16T13:30:08;26.90;99.90
34877;DHT22;21086;44.780;17.194;2024-01-16T13:32:35;27.00;99.90
34877;DHT22;21086;44.780;17.194;2024-01-16T13:35:05;26.80;99.90
34877;DHT22;21086;44.780;17.194;2024-01-16T13:37:35;26.90;99.90
34877;DHT22;21086;44.780;17.194;2024-01-16T13:40:08;27.10;99.90
34877;DHT22;21086;44.780;17.194;2024-01-16T13:42:42;26.90;99.90
34877;DHT22;21086;44.780;17.194;2024-01-16T13:45:09;27.10;99.90
34877;DHT22;21086;44.780;17.194;2024-01-16T13:47:38;26.60;99.90
34877;DHT22;21086;44.780;17.194;2024-01-16T13:50:08;26.80;99.90
34877;DHT22;21086;44.780;17.194;2024-01-16T13:52:35;25.80;99.90
34877;DHT22;21086;44.780;17.194;2024-01-16T13:55:03;25.40;99.90
34877;DHT22;21086;44.780;17.194;2024-01-16T13:57:32;25.70;99.90
34877;DHT22;21086;44.780;17.194;2024-01-16T14:00:11;25.60;99.90
34877;DHT22;21086;44.780;17.194;2024-01-16T14:02:44;26.10;99.90
34877;DHT22;21086;44.780;17.194;2024-01-16T14:05:13;26.30;99.90
34877;DHT22;21086;44.780;17.194;2024-01-16T14:07:46;26.70;99.90
34877;DHT22;21086;44.780;17.194;2024-01-16T14:10:14;26.60;99.90
34877;DHT22;21086;44.780;17.194;2024-01-16T14:12:43;26.50;99.90
34877;DHT22;21086;44.780;17.194;2024-01-16T14:15:18;26.40;99.90
34877;DHT22;21086;44.780;17.194;2024-01-16T14:17:47;26.20;99.90
34877;DHT22;21086;44.780;17.194;2024-01-16T14:20:16;27.00;99.90
34877;DHT22;21086;44.780;17.194;2024-01-16T14:22:43;26.20;99.90
34877;DHT22;21086;44.780;17.194;2024-01-16T14:25:11;25.80;99.90
34877;DHT22;21086;44.780;17.194;2024-01-16T14:27:40;25.80;99.90
34877;DHT22;21086;44.780;17.194;2024-01-16T14:30:13;25.70;99.90
34877;DHT22;21086;44.780;17.194;2024-01-16T14:32:44;24.90;99.90
34877;DHT22;21086;44.780;17.194;2024-01-16T14:35:14;23.60;99.90
34877;DHT22;21086;44.780;17.194;2024-01-16T14:37:41;22.40;99.90
34877;DHT22;21086;44.780;17.194;2024-01-16T14:40:08;21.00;99.90
34877;DHT22;21086;44.780;17.194;2024-01-16T14:42:39;19.80;99.90
34877;DHT22;21086;44.780;17.194;2024-01-16T14:45:07;19.40;99.90
34877;DHT22;21086;44.780;17.194;2024-01-16T14:47:34;19.30;99.90
34877;DHT22;21086;44.780;17.194;2024-01-16T14:50:02;18.30;99.90
34877;DHT22;21086;44.780;17.194;2024-01-16T14:52:30;18.60;99.90
34877;DHT22;21086;44.780;17.194;2024-01-16T14:55:03;18.50;99.90
34877;DHT22;21086;44.780;17.194;2024-01-16T14:57:31;18.50;99.90
34877;DHT22;21086;44.780;17.194;2024-01-16T14:59:58;18.20;99.90
34877;DHT22;21086;44.780;17.194;2024-01-16T15:02:25;17.70;99.90
34877;DHT22;21086;44.780;17.194;2024-01-16T15:04:53;17.20;99.90
34877;DHT22;21086;44.780;17.194;2024-01-16T15:07:20;16.60;99.90
34877;DHT22;21086;44.780;17.194;2024-01-16T15:09:47;15.70;99.90
34877;DHT22;21086;44.780;17.194;2024-01-16T15:12:14;14.70;99.90
34877;DHT22;21086;44.780;17.194;2024-01-16T15:14:41;14.00;99.90
34877;DHT22;21086;44.780;17.194;2024-01-16T15:17:08;13.30;99.90
34877;DHT22;21086;44.780;17.194;2024-01-16T15:19:37;12.40;99.90
34877;DHT22;21086;44.780;17.194;2024-01-16T15:22:04;11.70;99.90
34877;DHT22;21086;44.780;17.194;2024-01-16T15:24:32;11.10;99.90
34877;DHT22;21086;44.780;17.194;2024-01-16T15:26:59;10.40;99.90
34877;DHT22;21086;44.780;17.194;2024-01-16T15:29:26;9.90;99.90
34877;DHT22;21086;44.780;17.194;2024-01-16T15:31:53;9.40;99.90
34877;DHT22;21086;44.780;17.194;2024-01-16T15:34:22;8.80;99.90
34877;DHT22;21086;44.780;17.194;2024-01-16T15:36:49;8.40;99.90
34877;DHT22;21086;44.780;17.194;2024-01-16T15:39:16;8.10;99.90
34877;DHT22;21086;44.780;17.194;2024-01-16T15:41:43;7.80;99.90
34877;DHT22;21086;44.780;17.194;2024-01-16T15:44:11;7.50;99.90
34877;DHT22;21086;44.780;17.194;2024-01-16T15:47:14;7.30;99.90
34877;DHT22;21086;44.780;17.194;2024-01-16T15:49:41;7.00;99.90
34877;DHT22;21086;44.780;17.194;2024-01-16T15:52:08;6.80;99.90